sensor_id;sensor_type;location;lat;lon;timestamp;temperature;humidity
44647;DHT22;56315;-33.902;151.160;2022-08-23T00:02:11;26.70;66.50
44647;DHT22;56315;-33.902;151.160;2022-08-23T00:04:41;27.30;65.50
44647;DHT22;56315;-33.902;151.160;2022-08-23T00:07:12;27.80;65.30
44647;DHT22;56315;-33.902;151.160;2022-08-23T00:09:40;28.30;63.90
44647;DHT22;56315;-33.902;151.160;2022-08-23T00:12:19;28.30;63.10
44647;DHT22;56315;-33.902;151.160;2022-08-23T00:14:50;28.50;62.90
44647;DHT22;56315;-33.902;151.160;2022-08-23T00:17:18;29.00;61.70
44647;DHT22;56315;-33.902;151.160;2022-08-23T00:19:46;29.20;61.20
44647;DHT22;56315;-33.902;151.160;2022-08-23T00:22:14;29.20;61.90
44647;DHT22;56315;-33.902;151.160;2022-08-23T00:24:42;29.80;60.40
44647;DHT22;56315;-33.902;151.160;2022-08-23T00:27:15;30.40;59.10
44647;DHT22;56315;-33.902;151.160;2022-08-23T00:29:48;30.10;59.20
44647;DHT22;56315;-33.902;151.160;2022-08-23T00:32:28;30.10;58.50
44647;DHT22;56315;-33.902;151.160;2022-08-23T00:34:56;30.50;58.60
44647;DHT22;56315;-33.902;151.160;2022-08-23T00:37:25;30.40;57.30
44647;DHT22;56315;-33.902;151.160;2022-08-23T00:39:53;30.30;56.50
44647;DHT22;56315;-33.902;151.160;2022-08-23T00:45:59;29.20;59.80
44647;DHT22;56315;-33.902;151.160;2022-08-23T00:48:47;29.20;57.50
44647;DHT22;56315;-33.902;151.160;2022-08-23T00:54:14;29.80;57.00
44647;DHT22;56315;-33.902;151.160;2022-08-23T00:56:42;30.10;57.80
44647;DHT22;56315;-33.902;151.160;2022-08-23T00:59:10;30.50;57.90
44647;DHT22;56315;-33.902;151.160;2022-08-23T01:01:38;30.70;56.70
44647;DHT22;56315;-33.902;151.160;2022-08-23T01:04:05;30.60;56.20
44647;DHT22;56315;-33.902;151.160;2022-08-23T01:09:35;29.00;56.80
44647;DHT22;56315;-33.902;151.160;2022-08-23T01:12:22;29.00;57.50
44647;DHT22;56315;-33.902;151.160;2022-08-23T01:15:15;29.50;57.00
44647;DHT22;56315;-33.902;151.160;2022-08-23T01:18:08;30.10;56.10
44647;DHT22;56315;-33.902;151.160;2022-08-23T01:21:05;30.50;55.60
44647;DHT22;56315;-33.902;151.160;2022-08-23T01:23:40;31.00;56.30
44647;DHT22;56315;-33.902;151.160;2022-08-23T01:26:09;30.70;56.20
44647;DHT22;56315;-33.902;151.160;2022-08-23T01:28:37;30.60;55.20
44647;DHT22;56315;-33.902;151.160;2022-08-23T01:31:07;30.60;56.40
44647;DHT22;56315;-33.902;151.160;2022-08-23T01:33:36;30.70;55.70
44647;DHT22;56315;-33.902;151.160;2022-08-23T01:36:05;30.80;55.70
44647;DHT22;56315;-33.902;151.160;2022-08-23T01:38:33;31.00;55.80
44647;DHT22;56315;-33.902;151.160;2022-08-23T01:41:00;31.40;56.40
44647;DHT22;56315;-33.902;151.160;2022-08-23T01:43:27;31.70;54.30
44647;DHT22;56315;-33.902;151.160;2022-08-23T01:45:55;32.20;54.10
44647;DHT22;56315;-33.902;151.160;2022-08-23T01:48:23;32.60;52.80
44647;DHT22;56315;-33.902;151.160;2022-08-23T01:50:50;32.30;53.60
44647;DHT22;56315;-33.902;151.160;2022-08-23T01:53:18;32.50;53.90
44647;DHT22;56315;-33.902;151.160;2022-08-23T01:55:45;32.60;53.30
44647;DHT22;56315;-33.902;151.160;2022-08-23T01:58:13;32.10;53.00
44647;DHT22;56315;-33.902;151.160;2022-08-23T02:00:42;31.40;54.10
44647;DHT22;56315;-33.902;151.160;2022-08-23T02:03:10;30.50;54.90
44647;DHT22;56315;-33.902;151.160;2022-08-23T02:05:39;29.30;55.20
44647;DHT22;56315;-33.902;151.160;2022-08-23T02:08:08;28.60;56.30
44647;DHT22;56315;-33.902;151.160;2022-08-23T02:10:54;28.40;56.70
44647;DHT22;56315;-33.902;151.160;2022-08-23T02:13:21;27.80;57.50
44647;DHT22;56315;-33.902;151.160;2022-08-23T02:15:49;27.60;58.80
44647;DHT22;56315;-33.902;151.160;2022-08-23T02:18:20;27.20;58.70
44647;DHT22;56315;-33.902;151.160;2022-08-23T02:20:49;26.80;58.80
44647;DHT22;56315;-33.902;151.160;2022-08-23T02:23:18;26.40;59.80
44647;DHT22;56315;-33.902;151.160;2022-08-23T02:25:45;26.00;60.70
44647;DHT22;56315;-33.902;151.160;2022-08-23T02:28:13;25.50;63.90
44647;DHT22;56315;-33.902;151.160;2022-08-23T02:30:40;25.00;72.20
44647;DHT22;56315;-33.902;151.160;2022-08-23T02:33:10;24.50;79.40
44647;DHT22;56315;-33.902;151.160;2022-08-23T02:35:39;23.70;84.70
44647;DHT22;56315;-33.902;151.160;2022-08-23T02:38:09;22.80;95.20
44647;DHT22;56315;-33.902;151.160;2022-08-23T02:40:38;21.50;96.50
44647;DHT22;56315;-33.902;151.160;2022-08-23T02:43:06;20.40;99.90
44647;DHT22;56315;-33.902;151.160;2022-08-23T02:45:34;19.60;99.90
44647;DHT22;56315;-33.902;151.160;2022-08-23T02:48:03;19.20;99.90
44647;DHT22;56315;-33.902;151.160;2022-08-23T02:50:31;18.90;99.90
44647;DHT22;56315;-33.902;151.160;2022-08-23T02:52:58;18.80;99.90
44647;DHT22;56315;-33.902;151.160;2022-08-23T02:55:26;18.70;99.90
44647;DHT22;56315;-33.902;151.160;2022-08-23T02:57:54;18.50;99.90
44647;DHT22;56315;-33.902;151.160;2022-08-23T03:00:22;18.30;99.90
44647;DHT22;56315;-33.902;151.160;2022-08-23T03:02:49;17.80;99.90
44647;DHT22;56315;-33.902;151.160;2022-08-23T03:05:17;17.10;99.90
44647;DHT22;56315;-33.902;151.160;2022-08-23T03:07:44;16.50;99.90
44647;DHT22;56315;-33.902;151.160;2022-08-23T03:10:12;16.00;99.90
44647;DHT22;56315;-33.902;151.160;2022-08-23T03:12:41;15.60;99.90
44647;DHT22;56315;-33.902;151.160;2022-08-23T03:15:09;15.40;99.90
44647;DHT22;56315;-33.902;151.160;2022-08-23T03:17:37;15.50;99.90
44647;DHT22;56315;-33.902;151.160;2022-08-23T03:20:04;15.70;99.90
44647;DHT22;56315;-33.902;151.160;2022-08-23T03:22:32;16.20;99.90
44647;DHT22;56315;-33.902;151.160;2022-08-23T03:25:00;16.40;99.90
44647;DHT22;56315;-33.902;151.160;2022-08-23T03:27:27;16.60;99.90
44647;DHT22;56315;-33.902;151.160;2022-08-23T03:29:57;16.60;99.90
44647;DHT22;56315;-33.902;151.160;2022-08-23T03:32:24;16.60;99.90
44647;DHT22;56315;-33.902;151.160;2022-08-23T03:34:52;16.30;99.90
44647;DHT22;56315;-33.902;151.160;2022-08-23T03:37:20;15.90;99.90
44647;DHT22;56315;-33.902;151.160;2022-08-23T03:39:47;15.60;99.90
44647;DHT22;56315;-33.902;151.160;2022-08-23T03:42:15;15.20;99.90
44647;DHT22;56315;-33.902;151.160;2022-08-23T03:44:42;15.00;99.90
44647;DHT22;56315;-33.902;151.160;2022-08-23T03:47:10;14.80;99.90
44647;DHT22;56315;-33.902;151.160;2022-08-23T03:49:38;14.50;99.90
44647;DHT22;56315;-33.902;151.160;2022-08-23T03:52:06;14.40;99.90
44647;DHT22;56315;-33.902;151.160;2022-08-23T03:54:34;14.20;99.90
44647;DHT22;56315;-33.902;151.160;2022-08-23T03:57:05;14.10;99.90
44647;DHT22;56315;-33.902;151.160;2022-08-23T03:59:35;13.90;99.90
44647;DHT22;56315;-33.902;151.160;2022-08-23T04:02:03;13.80;99.90
44647;DHT22;56315;-33.902;151.160;2022-08-23T04:04:31;13.60;99.90
44647;DHT22;56315;-33.902;151.160;2022-08-23T04:06:59;13.30;99.90
44647;DHT22;56315;-33.902;151.160;2022-08-23T04:09:26;13.00;99.90
44647;DHT22;56315;-33.902;151.160;2022-08-23T04:11:54;12.90;99.90
44647;DHT22;56315;-33.902;151.160;2022-08-23T04:14:23;12.90;99.90
44647;DHT22;56315;-33.902;151.160;2022-08-23T04:16:52;12.80;99.90
44647;DHT22;56315;-33.902;151.160;2022-08-23T04:19:19;12.80;99.90
44647;DHT22;56315;-33.902;151.160;2022-08-23T04:21:50;12.80;99.90
44647;DHT22;56315;-33.902;151.160;2022-08-23T04:24:18;12.60;99.90
44647;DHT22;56315;-33.902;151.160;2022-08-23T04:26:46;12.60;99.90
44647;DHT22;56315;-33.902;151.160;2022-08-23T04:29:15;12.30;99.90
44647;DHT22;56315;-33.902;151.160;2022-08-23T04:31:43;12.20;99.90
44647;DHT22;56315;-33.902;151.160;2022-08-23T04:34:11;12.00;99.90
44647;DHT22;56315;-33.902;151.160;2022-08-23T04:36:41;11.70;99.90
44647;DHT22;56315;-33.902;151.160;2022-08-23T04:39:09;11.60;99.90
44647;DHT22;56315;-33.902;151.160;2022-08-23T04:41:36;11.60;99.90
44647;DHT22;56315;-33.902;151.160;2022-08-23T04:44:21;11.40;99.90
44647;DHT22;56315;-33.902;151.160;2022-08-23T04:46:49;11.20;99.90
44647;DHT22;56315;-33.902;151.160;2022-08-23T04:49:17;11.00;99.90
44647;DHT22;56315;-33.902;151.160;2022-08-23T04:51:45;10.80;99.90
44647;DHT22;56315;-33.902;151.160;2022-08-23T04:54:13;10.80;99.90
44647;DHT22;56315;-33.902;151.160;2022-08-23T04:56:41;10.80;99.90
44647;DHT22;56315;-33.902;151.160;2022-08-23T04:59:08;10.80;99.90
44647;DHT22;56315;-33.902;151.160;2022-08-23T05:01:39;10.70;99.90
44647;DHT22;56315;-33.902;151.160;2022-08-23T05:04:08;10.80;99.90
44647;DHT22;56315;-33.902;151.160;2022-08-23T05:06:36;10.70;99.90
44647;DHT22;56315;-33.902;151.160;2022-08-23T05:09:04;10.60;99.90
44647;DHT22;56315;-33.902;151.160;2022-08-23T05:11:31;10.40;99.90
44647;DHT22;56315;-33.902;151.160;2022-08-23T05:13:58;10.40;99.90
44647;DHT22;56315;-33.902;151.160;2022-08-23T05:16:26;10.30;99.90
44647;DHT22;56315;-33.902;151.160;2022-08-23T05:18:53;10.20;99.90
44647;DHT22;56315;-33.902;151.160;2022-08-23T05:21:22;10.30;99.90
44647;DHT22;56315;-33.902;151.160;2022-08-23T05:23:50;10.30;99.90
44647;DHT22;56315;-33.902;151.160;2022-08-23T05:26:19;10.20;99.90
44647;DHT22;56315;-33.902;151.160;2022-08-23T05:28:48;10.20;99.90
44647;DHT22;56315;-33.902;151.160;2022-08-23T05:31:19;10.20;99.90
44647;DHT22;56315;-33.902;151.160;2022-08-23T05:33:47;10.20;99.90
44647;DHT22;56315;-33.902;151.160;2022-08-23T05:36:16;10.10;99.90
44647;DHT22;56315;-33.902;151.160;2022-08-23T05:38:45;10.10;99.90
44647;DHT22;56315;-33.902;151.160;2022-08-23T05:41:13;10.10;99.90
44647;DHT22;56315;-33.902;151.160;2022-08-23T05:43:42;10.00;99.90
44647;DHT22;56315;-33.902;151.160;2022-08-23T05:46:12;10.00;99.90
44647;DHT22;56315;-33.902;151.160;2022-08-23T05:48:44;10.00;99.90
44647;DHT22;56315;-33.902;151.160;2022-08-23T05:51:18;10.10;99.90
44647;DHT22;56315;-33.902;151.160;2022-08-23T05:53:48;10.00;99.90
44647;DHT22;56315;-33.902;151.160;2022-08-23T05:56:28;10.00;99.90
44647;DHT22;56315;-33.902;151.160;2022-08-23T05:58:59;10.00;99.90
44647;DHT22;56315;-33.902;151.160;2022-08-23T06:01:28;10.00;99.90
44647;DHT22;56315;-33.902;151.160;2022-08-23T06:03:57;10.00;99.90
44647;DHT22;56315;-33.902;151.160;2022-08-23T06:06:25;9.90;99.90
44647;DHT22;56315;-33.902;151.160;2022-08-23T06:08:53;9.90;99.90
44647;DHT22;56315;-33.902;151.160;2022-08-23T06:11:22;9.90;99.90
44647;DHT22;56315;-33.902;151.160;2022-08-23T06:13:54;9.90;99.90
44647;DHT22;56315;-33.902;151.160;2022-08-23T06:16:26;9.90;99.90
44647;DHT22;56315;-33.902;151.160;2022-08-23T06:18:54;9.80;99.90
44647;DHT22;56315;-33.902;151.160;2022-08-23T06:21:24;9.80;99.90
44647;DHT22;56315;-33.902;151.160;2022-08-23T06:23:52;9.70;99.90
44647;DHT22;56315;-33.902;151.160;2022-08-23T06:26:23;9.70;99.90
44647;DHT22;56315;-33.902;151.160;2022-08-23T06:28:53;9.70;99.90
44647;DHT22;56315;-33.902;151.160;2022-08-23T06:31:24;9.70;99.90
44647;DHT22;56315;-33.902;151.160;2022-08-23T06:34:11;9.60;99.90
44647;DHT22;56315;-33.902;151.160;2022-08-23T06:36:39;9.60;99.90
44647;DHT22;56315;-33.902;151.160;2022-08-23T06:39:09;9.60;99.90
44647;DHT22;56315;-33.902;151.160;2022-08-23T06:41:37;9.60;99.90
44647;DHT22;56315;-33.902;151.160;2022-08-23T06:44:05;9.60;99.90
44647;DHT22;56315;-33.902;151.160;2022-08-23T06:46:34;9.50;99.90
44647;DHT22;56315;-33.902;151.160;2022-08-23T06:49:02;9.50;99.90
44647;DHT22;56315;-33.902;151.160;2022-08-23T06:51:46;9.50;99.90
44647;DHT22;56315;-33.902;151.160;2022-08-23T06:54:16;9.50;99.90
44647;DHT22;56315;-33.902;151.160;2022-08-23T06:56:46;9.50;99.90
44647;DHT22;56315;-33.902;151.160;2022-08-23T06:59:15;9.50;99.90
44647;DHT22;56315;-33.902;151.160;2022-08-23T07:04:24;9.60;99.90
44647;DHT22;56315;-33.902;151.160;2022-08-23T07:06:51;9.50;99.90
44647;DHT22;56315;-33.902;151.160;2022-08-23T07:09:19;9.50;99.90
44647;DHT22;56315;-33.902;151.160;2022-08-23T07:11:46;9.40;99.90
44647;DHT22;56315;-33.902;151.160;2022-08-23T07:14:15;9.40;99.90
44647;DHT22;56315;-33.902;151.160;2022-08-23T07:16:46;9.40;99.90
44647;DHT22;56315;-33.902;151.160;2022-08-23T07:19:15;9.40;99.90
44647;DHT22;56315;-33.902;151.160;2022-08-23T07:21:43;9.40;99.90
44647;DHT22;56315;-33.902;151.160;2022-08-23T07:24:11;9.50;99.90
44647;DHT22;56315;-33.902;151.160;2022-08-23T07:26:41;9.50;99.90
44647;DHT22;56315;-33.902;151.160;2022-08-23T07:29:09;9.50;99.90
44647;DHT22;56315;-33.902;151.160;2022-08-23T07:31:45;9.50;99.90
44647;DHT22;56315;-33.902;151.160;2022-08-23T07:34:13;9.60;99.90
44647;DHT22;56315;-33.902;151.160;2022-08-23T07:36:42;9.60;99.90
44647;DHT22;56315;-33.902;151.160;2022-08-23T07:39:11;9.70;99.90
44647;DHT22;56315;-33.902;151.160;2022-08-23T07:41:39;9.70;99.90
44647;DHT22;56315;-33.902;151.160;2022-08-23T07:44:08;9.70;99.90
44647;DHT22;56315;-33.902;151.160;2022-08-23T07:46:37;9.60;99.90
44647;DHT22;56315;-33.902;151.160;2022-08-23T07:49:06;9.60;99.90
44647;DHT22;56315;-33.902;151.160;2022-08-23T07:51:35;9.70;99.90
44647;DHT22;56315;-33.902;151.160;2022-08-23T07:54:05;9.70;99.90
44647;DHT22;56315;-33.902;151.160;2022-08-23T07:56:34;9.60;99.90
44647;DHT22;56315;-33.902;151.160;2022-08-23T07:59:03;9.60;99.90
44647;DHT22;56315;-33.902;151.160;2022-08-23T08:01:31;9.60;99.90
44647;DHT22;56315;-33.902;151.160;2022-08-23T08:04:00;9.60;99.90
44647;DHT22;56315;-33.902;151.160;2022-08-23T08:06:29;9.60;99.90
44647;DHT22;56315;-33.902;151.160;2022-08-23T08:08:58;9.60;99.90
44647;DHT22;56315;-33.902;151.160;2022-08-23T08:11:27;9.60;99.90
44647;DHT22;56315;-33.902;151.160;2022-08-23T08:13:55;9.70;99.90
44647;DHT22;56315;-33.902;151.160;2022-08-23T08:16:26;9.70;99.90
44647;DHT22;56315;-33.902;151.160;2022-08-23T08:18:56;9.70;99.90
44647;DHT22;56315;-33.902;151.160;2022-08-23T08:21:25;9.60;99.90
44647;DHT22;56315;-33.902;151.160;2022-08-23T08:23:54;9.60;99.90
44647;DHT22;56315;-33.902;151.160;2022-08-23T08:26:21;9.60;99.90
44647;DHT22;56315;-33.902;151.160;2022-08-23T08:28:50;9.70;99.90
44647;DHT22;56315;-33.902;151.160;2022-08-23T08:31:23;9.60;99.90
44647;DHT22;56315;-33.902;151.160;2022-08-23T08:33:51;9.60;99.90
44647;DHT22;56315;-33.902;151.160;2022-08-23T08:36:35;9.50;99.90
44647;DHT22;56315;-33.902;151.160;2022-08-23T08:39:09;9.40;99.90
44647;DHT22;56315;-33.902;151.160;2022-08-23T08:44:48;9.20;99.90
44647;DHT22;56315;-33.902;151.160;2022-08-23T08:50:08;9.20;99.90
44647;DHT22;56315;-33.902;151.160;2022-08-23T08:52:51;9.20;99.90
44647;DHT22;56315;-33.902;151.160;2022-08-23T08:55:24;9.20;99.90
44647;DHT22;56315;-33.902;151.160;2022-08-23T08:57:52;9.20;99.90
44647;DHT22;56315;-33.902;151.160;2022-08-23T09:00:26;9.20;99.90
44647;DHT22;56315;-33.902;151.160;2022-08-23T09:02:56;9.20;99.90
44647;DHT22;56315;-33.902;151.160;2022-08-23T09:05:30;9.10;99.90
44647;DHT22;56315;-33.902;151.160;2022-08-23T09:11:43;9.00;99.90
44647;DHT22;56315;-33.902;151.160;2022-08-23T09:14:41;9.10;99.90
44647;DHT22;56315;-33.902;151.160;2022-08-23T09:17:35;9.00;99.90
44647;DHT22;56315;-33.902;151.160;2022-08-23T09:20:04;9.00;99.90
44647;DHT22;56315;-33.902;151.160;2022-08-23T09:22:39;9.00;99.90
44647;DHT22;56315;-33.902;151.160;2022-08-23T09:25:09;9.00;99.90
44647;DHT22;56315;-33.902;151.160;2022-08-23T09:27:39;9.00;99.90
44647;DHT22;56315;-33.902;151.160;2022-08-23T09:30:07;8.90;99.90
44647;DHT22;56315;-33.902;151.160;2022-08-23T09:32:37;8.90;99.90
44647;DHT22;56315;-33.902;151.160;2022-08-23T09:35:21;8.90;99.90
44647;DHT22;56315;-33.902;151.160;2022-08-23T09:40:35;8.80;99.90
44647;DHT22;56315;-33.902;151.160;2022-08-23T09:43:18;8.80;99.90
44647;DHT22;56315;-33.902;151.160;2022-08-23T09:48:37;8.80;99.90
44647;DHT22;56315;-33.902;151.160;2022-08-23T09:51:06;8.70;99.90
44647;DHT22;56315;-33.902;151.160;2022-08-23T09:53:35;8.80;99.90
44647;DHT22;56315;-33.902;151.160;2022-08-23T09:56:21;8.80;99.90
44647;DHT22;56315;-33.902;151.160;2022-08-23T09:58:50;8.70;99.90
44647;DHT22;56315;-33.902;151.160;2022-08-23T10:01:27;8.70;99.90
44647;DHT22;56315;-33.902;151.160;2022-08-23T10:05:16;8.70;99.90
44647;DHT22;56315;-33.902;151.160;2022-08-23T10:07:28;8.70;99.90
44647;DHT22;56315;-33.902;151.160;2022-08-23T10:10:30;8.70;99.90
44647;DHT22;56315;-33.902;151.160;2022-08-23T10:12:59;8.60;99.90
44647;DHT22;56315;-33.902;151.160;2022-08-23T10:15:53;8.60;99.90
44647;DHT22;56315;-33.902;151.160;2022-08-23T10:19:20;8.60;99.90
44647;DHT22;56315;-33.902;151.160;2022-08-23T10:21:39;8.60;99.90
44647;DHT22;56315;-33.902;151.160;2022-08-23T10:27:26;8.40;99.90
44647;DHT22;56315;-33.902;151.160;2022-08-23T10:33:48;8.30;99.90
44647;DHT22;56315;-33.902;151.160;2022-08-23T10:36:26;8.30;99.90
44647;DHT22;56315;-33.902;151.160;2022-08-23T10:39:08;8.30;99.90
44647;DHT22;56315;-33.902;151.160;2022-08-23T10:49:52;8.20;99.90
44647;DHT22;56315;-33.902;151.160;2022-08-23T10:53:00;8.20;99.90
44647;DHT22;56315;-33.902;151.160;2022-08-23T10:55:44;8.20;99.90
44647;DHT22;56315;-33.902;151.160;2022-08-23T10:58:47;8.30;99.90
44647;DHT22;56315;-33.902;151.160;2022-08-23T11:06:58;8.20;99.90
44647;DHT22;56315;-33.902;151.160;2022-08-23T11:12:19;8.10;99.90
44647;DHT22;56315;-33.902;151.160;2022-08-23T11:15:07;8.10;99.90
44647;DHT22;56315;-33.902;151.160;2022-08-23T11:23:38;8.10;99.90
44647;DHT22;56315;-33.902;151.160;2022-08-23T11:26:10;8.10;99.90
44647;DHT22;56315;-33.902;151.160;2022-08-23T11:28:43;8.10;99.90
44647;DHT22;56315;-33.902;151.160;2022-08-23T11:33:49;8.00;99.90
44647;DHT22;56315;-33.902;151.160;2022-08-23T11:36:25;8.00;99.90
44647;DHT22;56315;-33.902;151.160;2022-08-23T11:42:16;8.00;99.90
44647;DHT22;56315;-33.902;151.160;2022-08-23T11:44:47;8.00;99.90
44647;DHT22;56315;-33.902;151.160;2022-08-23T11:47:16;8.10;99.90
44647;DHT22;56315;-33.902;151.160;2022-08-23T11:50:20;8.00;99.90
44647;DHT22;56315;-33.902;151.160;2022-08-23T11:53:12;8.10;99.90
44647;DHT22;56315;-33.902;151.160;2022-08-23T11:55:55;8.10;99.90
44647;DHT22;56315;-33.902;151.160;2022-08-23T11:58:54;8.10;99.90
44647;DHT22;56315;-33.902;151.160;2022-08-23T12:01:34;8.10;99.90
44647;DHT22;56315;-33.902;151.160;2022-08-23T12:04:06;8.10;99.90
44647;DHT22;56315;-33.902;151.160;2022-08-23T12:06:46;8.10;99.90
44647;DHT22;56315;-33.902;151.160;2022-08-23T12:12:13;8.20;99.90
44647;DHT22;56315;-33.902;151.160;2022-08-23T12:14:59;8.20;99.90
44647;DHT22;56315;-33.902;151.160;2022-08-23T12:22:55;8.30;99.90
44647;DHT22;56315;-33.902;151.160;2022-08-23T12:25:23;8.20;99.90
44647;DHT22;56315;-33.902;151.160;2022-08-23T12:28:16;8.30;99.90
44647;DHT22;56315;-33.902;151.160;2022-08-23T12:31:12;8.30;99.90
44647;DHT22;56315;-33.902;151.160;2022-08-23T12:36:36;8.30;99.90
44647;DHT22;56315;-33.902;151.160;2022-08-23T12:42:12;8.30;99.90
44647;DHT22;56315;-33.902;151.160;2022-08-23T12:44:44;8.30;99.90
44647;DHT22;56315;-33.902;151.160;2022-08-23T12:47:16;8.30;99.90
44647;DHT22;56315;-33.902;151.160;2022-08-23T12:49:56;8.30;99.90
44647;DHT22;56315;-33.902;151.160;2022-08-23T12:52:28;8.30;99.90
44647;DHT22;56315;-33.902;151.160;2022-08-23T12:54:57;8.30;99.90
44647;DHT22;56315;-33.902;151.160;2022-08-23T12:57:32;8.30;99.90
44647;DHT22;56315;-33.902;151.160;2022-08-23T13:00:18;8.30;99.90
44647;DHT22;56315;-33.902;151.160;2022-08-23T13:02:54;8.30;99.90
44647;DHT22;56315;-33.902;151.160;2022-08-23T13:05:46;8.30;99.90
44647;DHT22;56315;-33.902;151.160;2022-08-23T13:08:17;8.30;99.90
44647;DHT22;56315;-33.902;151.160;2022-08-23T13:10:46;8.30;99.90
44647;DHT22;56315;-33.902;151.160;2022-08-23T13:13:18;8.30;99.90
44647;DHT22;56315;-33.902;151.160;2022-08-23T13:15:52;8.30;99.90
44647;DHT22;56315;-33.902;151.160;2022-08-23T13:18:39;8.30;99.90
44647;DHT22;56315;-33.902;151.160;2022-08-23T13:26:42;8.40;99.90
44647;DHT22;56315;-33.902;151.160;2022-08-23T13:29:21;8.40;99.90
44647;DHT22;56315;-33.902;151.160;2022-08-23T13:34:34;8.40;99.90
44647;DHT22;56315;-33.902;151.160;2022-08-23T13:37:04;8.40;99.90
44647;DHT22;56315;-33.902;151.160;2022-08-23T13:39:32;8.40;99.90
44647;DHT22;56315;-33.902;151.160;2022-08-23T13:42:00;8.40;99.90
44647;DHT22;56315;-33.902;151.160;2022-08-23T13:44:30;8.40;99.90
44647;DHT22;56315;-33.902;151.160;2022-08-23T13:46:58;8.40;99.90
44647;DHT22;56315;-33.902;151.160;2022-08-23T13:49:28;8.40;99.90
44647;DHT22;56315;-33.902;151.160;2022-08-23T13:52:03;8.50;99.90
44647;DHT22;56315;-33.902;151.160;2022-08-23T13:54:33;8.50;99.90
44647;DHT22;56315;-33.902;151.160;2022-08-23T13:57:04;8.50;99.90
44647;DHT22;56315;-33.902;151.160;2022-08-23T13:59:39;8.50;99.90
44647;DHT22;56315;-33.902;151.160;2022-08-23T14:02:12;8.50;99.90
44647;DHT22;56315;-33.902;151.160;2022-08-23T14:04:42;8.60;99.90
44647;DHT22;56315;-33.902;151.160;2022-08-23T14:07:10;8.60;99.90
44647;DHT22;56315;-33.902;151.160;2022-08-23T14:09:38;8.60;99.90
44647;DHT22;56315;-33.902;151.160;2022-08-23T14:12:14;8.70;99.90
44647;DHT22;56315;-33.902;151.160;2022-08-23T14:14:43;8.70;99.90
44647;DHT22;56315;-33.902;151.160;2022-08-23T14:17:11;8.60;99.90
44647;DHT22;56315;-33.902;151.160;2022-08-23T14:19:40;8.70;99.90
44647;DHT22;56315;-33.902;151.160;2022-08-23T14:22:08;8.70;99.90
44647;DHT22;56315;-33.902;151.160;2022-08-23T14:24:36;8.70;99.90
44647;DHT22;56315;-33.902;151.160;2022-08-23T14:27:04;8.70;99.90
44647;DHT22;56315;-33.902;151.160;2022-08-23T14:29:31;8.70;99.90
44647;DHT22;56315;-33.902;151.160;2022-08-23T14:31:58;8.80;99.90
44647;DHT22;56315;-33.902;151.160;2022-08-23T14:34:27;8.80;99.90
44647;DHT22;56315;-33.902;151.160;2022-08-23T14:36:55;8.80;99.90
44647;DHT22;56315;-33.902;151.160;2022-08-23T14:39:23;8.80;99.90
44647;DHT22;56315;-33.902;151.160;2022-08-23T14:41:50;8.80;99.90
44647;DHT22;56315;-33.902;151.160;2022-08-23T14:44:18;8.80;99.90
44647;DHT22;56315;-33.902;151.160;2022-08-23T14:46:45;8.90;99.90
44647;DHT22;56315;-33.902;151.160;2022-08-23T14:49:13;8.90;99.90
44647;DHT22;56315;-33.902;151.160;2022-08-23T14:51:45;8.90;99.90
44647;DHT22;56315;-33.902;151.160;2022-08-23T14:54:18;8.90;99.90
44647;DHT22;56315;-33.902;151.160;2022-08-23T14:56:47;8.90;99.90
44647;DHT22;56315;-33.902;151.160;2022-08-23T14:59:14;8.90;99.90
44647;DHT22;56315;-33.902;151.160;2022-08-23T15:01:42;8.90;99.90
44647;DHT22;56315;-33.902;151.160;2022-08-23T15:04:09;9.00;99.90
44647;DHT22;56315;-33.902;151.160;2022-08-23T15:06:37;9.00;99.90
44647;DHT22;56315;-33.902;151.160;2022-08-23T15:09:06;9.00;99.90
44647;DHT22;56315;-33.902;151.160;2022-08-23T15:11:33;9.00;99.90
44647;DHT22;56315;-33.902;151.160;2022-08-23T15:14:00;9.00;99.90
44647;DHT22;56315;-33.902;151.160;2022-08-23T15:16:28;9.00;99.90
44647;DHT22;56315;-33.902;151.160;2022-08-23T15:18:56;9.00;99.90
44647;DHT22;56315;-33.902;151.160;2022-08-23T15:21:23;9.00;99.90
44647;DHT22;56315;-33.902;151.160;2022-08-23T15:23:51;9.00;99.90
44647;DHT22;56315;-33.902;151.160;2022-08-23T15:26:25;9.00;99.90
44647;DHT22;56315;-33.902;151.160;2022-08-23T15:28:54;9.00;99.90
44647;DHT22;56315;-33.902;151.160;2022-08-23T15:31:21;9.00;99.90
44647;DHT22;56315;-33.902;151.160;2022-08-23T15:33:49;9.00;99.90
44647;DHT22;56315;-33.902;151.160;2022-08-23T15:36:17;9.00;99.90
44647;DHT22;56315;-33.902;151.160;2022-08-23T15:38:45;9.00;99.90
44647;DHT22;56315;-33.902;151.160;2022-08-23T15:41:16;9.00;99.90
44647;DHT22;56315;-33.902;151.160;2022-08-23T15:43:43;8.90;99.90
44647;DHT22;56315;-33.902;151.160;2022-08-23T15:46:17;8.90;99.90
44647;DHT22;56315;-33.902;151.160;2022-08-23T15:51:24;9.00;99.90
44647;DHT22;56315;-33.902;151.160;2022-08-23T15:53:52;9.00;99.90
44647;DHT22;56315;-33.902;151.160;2022-08-23T15:56:21;8.90;99.90
44647;DHT22;56315;-33.902;151.160;2022-08-23T15:58:52;8.90;99.90
44647;DHT22;56315;-33.902;151.160;2022-08-23T16:01:20;8.90;99.90
44647;DHT22;56315;-33.902;151.160;2022-08-23T16:03:49;8.90;99.90
44647;DHT22;56315;-33.902;151.160;2022-08-23T16:06:16;8.90;99.90
44647;DHT22;56315;-33.902;151.160;2022-08-23T16:08:46;8.90;99.90
44647;DHT22;56315;-33.902;151.160;2022-08-23T16:11:15;8.90;99.90
44647;DHT22;56315;-33.902;151.160;2022-08-23T16:13:44;8.90;99.90
44647;DHT22;56315;-33.902;151.160;2022-08-23T16:16:21;8.90;99.90
44647;DHT22;56315;-33.902;151.160;2022-08-23T16:18:49;8.80;99.90
44647;DHT22;56315;-33.902;151.160;2022-08-23T16:21:19;8.80;99.90
44647;DHT22;56315;-33.902;151.160;2022-08-23T16:23:47;8.80;99.90
44647;DHT22;56315;-33.902;151.160;2022-08-23T16:26:17;8.70;99.90
44647;DHT22;56315;-33.902;151.160;2022-08-23T16:28:47;8.70;99.90
44647;DHT22;56315;-33.902;151.160;2022-08-23T16:31:16;8.70;99.90
44647;DHT22;56315;-33.902;151.160;2022-08-23T16:33:43;8.70;99.90
44647;DHT22;56315;-33.902;151.160;2022-08-23T16:36:14;8.70;99.90
44647;DHT22;56315;-33.902;151.160;2022-08-23T16:38:45;8.70;99.90
44647;DHT22;56315;-33.902;151.160;2022-08-23T16:41:13;8.70;99.90
44647;DHT22;56315;-33.902;151.160;2022-08-23T16:43:41;8.70;99.90
44647;DHT22;56315;-33.902;151.160;2022-08-23T16:46:09;8.70;99.90
44647;DHT22;56315;-33.902;151.160;2022-08-23T16:48:36;8.70;99.90
44647;DHT22;56315;-33.902;151.160;2022-08-23T16:51:04;8.60;99.90